sensor_id;sensor_type;location;lat;lon;timestamp;P1;durP1;ratioP1;P2;durP2;ratioP2
1831;SDS011;1680;48.106;11.708;2023-12-20T00:02:16;2.90;;;2.60;;
1831;SDS011;1680;48.106;11.708;2023-12-20T00:04:43;2.90;;;2.70;;
1831;SDS011;1680;48.106;11.708;2023-12-20T00:07:12;4.50;;;2.50;;
1831;SDS011;1680;48.106;11.708;2023-12-20T00:09:39;2.43;;;2.23;;
1831;SDS011;1680;48.106;11.708;2023-12-20T00:12:06;3.23;;;2.50;;
1831;SDS011;1680;48.106;11.708;2023-12-20T00:14:34;2.80;;;2.10;;
1831;SDS011;1680;48.106;11.708;2023-12-20T00:17:01;3.50;;;2.90;;
1831;SDS011;1680;48.106;11.708;2023-12-20T00:19:28;3.70;;;2.90;;
1831;SDS011;1680;48.106;11.708;2023-12-20T00:21:55;3.17;;;2.87;;
1831;SDS011;1680;48.106;11.708;2023-12-20T00:24:24;3.80;;;2.70;;
1831;SDS011;1680;48.106;11.708;2023-12-20T00:26:51;3.60;;;2.90;;
1831;SDS011;1680;48.106;11.708;2023-12-20T00:29:18;3.53;;;2.90;;
1831;SDS011;1680;48.106;11.708;2023-12-20T00:31:45;2.50;;;2.30;;
1831;SDS011;1680;48.106;11.708;2023-12-20T00:34:12;2.70;;;2.50;;
1831;SDS011;1680;48.106;11.708;2023-12-20T00:36:39;2.47;;;2.27;;
1831;SDS011;1680;48.106;11.708;2023-12-20T00:39:06;2.83;;;2.03;;
1831;SDS011;1680;48.106;11.708;2023-12-20T00:41:35;3.70;;;2.73;;
1831;SDS011;1680;48.106;11.708;2023-12-20T00:44:02;3.93;;;2.40;;
1831;SDS011;1680;48.106;11.708;2023-12-20T00:46:29;2.00;;;1.90;;
1831;SDS011;1680;48.106;11.708;2023-12-20T00:48:56;3.30;;;2.23;;
1831;SDS011;1680;48.106;11.708;2023-12-20T00:51:23;3.47;;;2.30;;
1831;SDS011;1680;48.106;11.708;2023-12-20T00:53:50;3.17;;;2.30;;
1831;SDS011;1680;48.106;11.708;2023-12-20T00:56:20;2.67;;;2.33;;
1831;SDS011;1680;48.106;11.708;2023-12-20T00:58:48;2.03;;;1.93;;
1831;SDS011;1680;48.106;11.708;2023-12-20T01:01:15;2.77;;;2.20;;
1831;SDS011;1680;48.106;11.708;2023-12-20T01:03:42;2.20;;;2.00;;
1831;SDS011;1680;48.106;11.708;2023-12-20T01:06:09;3.30;;;2.13;;
1831;SDS011;1680;48.106;11.708;2023-12-20T01:08:37;4.03;;;2.90;;
1831;SDS011;1680;48.106;11.708;2023-12-20T01:11:04;2.90;;;2.60;;
1831;SDS011;1680;48.106;11.708;2023-12-20T01:13:31;2.40;;;2.20;;
1831;SDS011;1680;48.106;11.708;2023-12-20T01:16:00;2.43;;;2.00;;
1831;SDS011;1680;48.106;11.708;2023-12-20T01:18:27;2.73;;;2.07;;
1831;SDS011;1680;48.106;11.708;2023-12-20T01:20:56;1.80;;;1.70;;
1831;SDS011;1680;48.106;11.708;2023-12-20T01:23:23;2.23;;;2.03;;
1831;SDS011;1680;48.106;11.708;2023-12-20T01:25:50;3.17;;;2.40;;
1831;SDS011;1680;48.106;11.708;2023-12-20T01:28:17;1.87;;;1.77;;
1831;SDS011;1680;48.106;11.708;2023-12-20T01:30:44;2.03;;;1.83;;
1831;SDS011;1680;48.106;11.708;2023-12-20T01:33:12;2.53;;;2.30;;
1831;SDS011;1680;48.106;11.708;2023-12-20T01:35:39;2.03;;;1.90;;
1831;SDS011;1680;48.106;11.708;2023-12-20T01:38:06;2.40;;;2.20;;
1831;SDS011;1680;48.106;11.708;2023-12-20T01:40:33;2.63;;;2.43;;
1831;SDS011;1680;48.106;11.708;2023-12-20T01:43:01;2.40;;;2.20;;
1831;SDS011;1680;48.106;11.708;2023-12-20T01:45:29;2.87;;;2.57;;
1831;SDS011;1680;48.106;11.708;2023-12-20T01:47:56;3.33;;;2.53;;
1831;SDS011;1680;48.106;11.708;2023-12-20T01:50:26;3.50;;;3.20;;
1831;SDS011;1680;48.106;11.708;2023-12-20T01:52:54;4.40;;;2.90;;
1831;SDS011;1680;48.106;11.708;2023-12-20T01:55:22;2.30;;;2.10;;
1831;SDS011;1680;48.106;11.708;2023-12-20T01:57:50;2.40;;;2.20;;
1831;SDS011;1680;48.106;11.708;2023-12-20T02:00:18;3.40;;;2.00;;
1831;SDS011;1680;48.106;11.708;2023-12-20T02:02:48;2.07;;;1.70;;
1831;SDS011;1680;48.106;11.708;2023-12-20T02:05:17;1.60;;;1.50;;
1831;SDS011;1680;48.106;11.708;2023-12-20T02:07:46;1.70;;;1.57;;
1831;SDS011;1680;48.106;11.708;2023-12-20T02:10:13;1.80;;;1.70;;
1831;SDS011;1680;48.106;11.708;2023-12-20T02:12:40;1.67;;;1.57;;
1831;SDS011;1680;48.106;11.708;2023-12-20T02:15:08;1.20;;;1.10;;
1831;SDS011;1680;48.106;11.708;2023-12-20T02:17:35;1.80;;;1.37;;
1831;SDS011;1680;48.106;11.708;2023-12-20T02:20:03;1.53;;;1.43;;
1831;SDS011;1680;48.106;11.708;2023-12-20T02:22:33;1.87;;;1.30;;
1831;SDS011;1680;48.106;11.708;2023-12-20T02:25:00;1.40;;;1.30;;
1831;SDS011;1680;48.106;11.708;2023-12-20T02:27:27;1.90;;;1.30;;
1831;SDS011;1680;48.106;11.708;2023-12-20T02:29:56;1.47;;;1.37;;
1831;SDS011;1680;48.106;11.708;2023-12-20T02:32:24;1.40;;;1.30;;
1831;SDS011;1680;48.106;11.708;2023-12-20T02:34:52;1.23;;;1.17;;
1831;SDS011;1680;48.106;11.708;2023-12-20T02:37:19;1.57;;;1.47;;
1831;SDS011;1680;48.106;11.708;2023-12-20T02:39:47;1.73;;;1.47;;
1831;SDS011;1680;48.106;11.708;2023-12-20T02:42:14;1.50;;;1.07;;
1831;SDS011;1680;48.106;11.708;2023-12-20T02:44:41;1.30;;;1.20;;
1831;SDS011;1680;48.106;11.708;2023-12-20T02:47:09;1.20;;;1.10;;
1831;SDS011;1680;48.106;11.708;2023-12-20T02:49:36;1.57;;;1.03;;
1831;SDS011;1680;48.106;11.708;2023-12-20T02:52:03;1.70;;;1.37;;
1831;SDS011;1680;48.106;11.708;2023-12-20T02:54:31;1.40;;;1.30;;
1831;SDS011;1680;48.106;11.708;2023-12-20T02:56:59;1.17;;;1.07;;
1831;SDS011;1680;48.106;11.708;2023-12-20T02:59:26;1.47;;;1.37;;
1831;SDS011;1680;48.106;11.708;2023-12-20T03:01:53;1.30;;;1.20;;
1831;SDS011;1680;48.106;11.708;2023-12-20T03:04:20;1.40;;;1.30;;
1831;SDS011;1680;48.106;11.708;2023-12-20T03:06:48;1.40;;;1.30;;
1831;SDS011;1680;48.106;11.708;2023-12-20T03:09:15;1.37;;;1.27;;
1831;SDS011;1680;48.106;11.708;2023-12-20T03:11:41;1.20;;;1.03;;
1831;SDS011;1680;48.106;11.708;2023-12-20T03:14:10;2.03;;;1.20;;
1831;SDS011;1680;48.106;11.708;2023-12-20T03:16:37;1.37;;;1.27;;
1831;SDS011;1680;48.106;11.708;2023-12-20T03:19:04;1.60;;;1.13;;
1831;SDS011;1680;48.106;11.708;2023-12-20T03:21:31;1.20;;;1.10;;
1831;SDS011;1680;48.106;11.708;2023-12-20T03:23:58;1.63;;;1.50;;
1831;SDS011;1680;48.106;11.708;2023-12-20T03:26:25;1.63;;;1.43;;
1831;SDS011;1680;48.106;11.708;2023-12-20T03:28:52;2.67;;;1.57;;
1831;SDS011;1680;48.106;11.708;2023-12-20T03:31:21;1.90;;;1.73;;
1831;SDS011;1680;48.106;11.708;2023-12-20T03:33:48;2.03;;;1.60;;
1831;SDS011;1680;48.106;11.708;2023-12-20T03:36:16;2.17;;;1.97;;
1831;SDS011;1680;48.106;11.708;2023-12-20T03:38:43;1.53;;;1.43;;
1831;SDS011;1680;48.106;11.708;2023-12-20T03:41:10;1.80;;;1.70;;
1831;SDS011;1680;48.106;11.708;2023-12-20T03:43:38;1.90;;;1.80;;
1831;SDS011;1680;48.106;11.708;2023-12-20T03:46:05;1.87;;;1.77;;
1831;SDS011;1680;48.106;11.708;2023-12-20T03:48:33;2.03;;;1.80;;
1831;SDS011;1680;48.106;11.708;2023-12-20T03:51:00;1.93;;;1.77;;
1831;SDS011;1680;48.106;11.708;2023-12-20T03:53:27;2.00;;;1.80;;
1831;SDS011;1680;48.106;11.708;2023-12-20T03:55:54;2.40;;;1.70;;
1831;SDS011;1680;48.106;11.708;2023-12-20T03:58:21;2.57;;;2.37;;
1831;SDS011;1680;48.106;11.708;2023-12-20T04:00:48;2.37;;;2.03;;
1831;SDS011;1680;48.106;11.708;2023-12-20T04:03:16;1.83;;;1.70;;
1831;SDS011;1680;48.106;11.708;2023-12-20T04:05:44;2.40;;;2.20;;
1831;SDS011;1680;48.106;11.708;2023-12-20T04:08:11;2.20;;;1.80;;
1831;SDS011;1680;48.106;11.708;2023-12-20T04:10:38;2.20;;;1.70;;
1831;SDS011;1680;48.106;11.708;2023-12-20T04:13:05;1.63;;;1.40;;
1831;SDS011;1680;48.106;11.708;2023-12-20T04:15:32;1.10;;;1.10;;
1831;SDS011;1680;48.106;11.708;2023-12-20T04:17:59;1.20;;;1.10;;
1831;SDS011;1680;48.106;11.708;2023-12-20T04:20:27;1.27;;;1.00;;
1831;SDS011;1680;48.106;11.708;2023-12-20T04:22:55;0.90;;;0.90;;
1831;SDS011;1680;48.106;11.708;2023-12-20T04:25:22;0.90;;;0.90;;
1831;SDS011;1680;48.106;11.708;2023-12-20T04:27:49;1.60;;;0.97;;
1831;SDS011;1680;48.106;11.708;2023-12-20T04:30:17;0.80;;;0.80;;
1831;SDS011;1680;48.106;11.708;2023-12-20T04:32:44;0.80;;;0.80;;
1831;SDS011;1680;48.106;11.708;2023-12-20T04:35:11;0.80;;;0.80;;
1831;SDS011;1680;48.106;11.708;2023-12-20T04:37:38;0.80;;;0.80;;
1831;SDS011;1680;48.106;11.708;2023-12-20T04:40:07;0.70;;;0.70;;
1831;SDS011;1680;48.106;11.708;2023-12-20T04:42:34;0.80;;;0.80;;
1831;SDS011;1680;48.106;11.708;2023-12-20T04:45:01;0.90;;;0.80;;
1831;SDS011;1680;48.106;11.708;2023-12-20T04:47:29;0.80;;;0.80;;
1831;SDS011;1680;48.106;11.708;2023-12-20T04:49:56;1.00;;;0.90;;
1831;SDS011;1680;48.106;11.708;2023-12-20T04:52:23;1.37;;;1.00;;
1831;SDS011;1680;48.106;11.708;2023-12-20T04:54:50;1.43;;;1.10;;
1831;SDS011;1680;48.106;11.708;2023-12-20T04:57:18;1.23;;;1.00;;
1831;SDS011;1680;48.106;11.708;2023-12-20T04:59:46;1.17;;;1.17;;
1831;SDS011;1680;48.106;11.708;2023-12-20T05:02:13;1.60;;;1.50;;
1831;SDS011;1680;48.106;11.708;2023-12-20T05:04:40;1.20;;;1.10;;
1831;SDS011;1680;48.106;11.708;2023-12-20T05:07:07;0.90;;;0.90;;
1831;SDS011;1680;48.106;11.708;2023-12-20T05:09:34;1.30;;;1.20;;
1831;SDS011;1680;48.106;11.708;2023-12-20T05:12:02;1.30;;;1.20;;
1831;SDS011;1680;48.106;11.708;2023-12-20T05:14:30;1.47;;;1.37;;
1831;SDS011;1680;48.106;11.708;2023-12-20T05:16:57;1.40;;;1.30;;
1831;SDS011;1680;48.106;11.708;2023-12-20T05:19:24;1.27;;;1.20;;
1831;SDS011;1680;48.106;11.708;2023-12-20T05:21:51;2.63;;;1.37;;
1831;SDS011;1680;48.106;11.708;2023-12-20T05:24:18;1.50;;;1.40;;
1831;SDS011;1680;48.106;11.708;2023-12-20T05:26:46;2.37;;;1.47;;
1831;SDS011;1680;48.106;11.708;2023-12-20T05:29:13;1.77;;;1.67;;
1831;SDS011;1680;48.106;11.708;2023-12-20T05:31:41;2.00;;;1.70;;
1831;SDS011;1680;48.106;11.708;2023-12-20T05:34:08;1.60;;;1.50;;
1831;SDS011;1680;48.106;11.708;2023-12-20T05:36:35;1.50;;;1.40;;
1831;SDS011;1680;48.106;11.708;2023-12-20T05:39:03;1.60;;;1.50;;
1831;SDS011;1680;48.106;11.708;2023-12-20T05:41:33;1.73;;;1.63;;
1831;SDS011;1680;48.106;11.708;2023-12-20T05:44:00;1.80;;;1.70;;
1831;SDS011;1680;48.106;11.708;2023-12-20T05:46:27;2.13;;;1.60;;
1831;SDS011;1680;48.106;11.708;2023-12-20T05:48:58;1.47;;;1.37;;
1831;SDS011;1680;48.106;11.708;2023-12-20T05:51:25;1.67;;;1.57;;
1831;SDS011;1680;48.106;11.708;2023-12-20T05:53:52;1.70;;;1.60;;
1831;SDS011;1680;48.106;11.708;2023-12-20T05:56:19;1.63;;;1.53;;
1831;SDS011;1680;48.106;11.708;2023-12-20T05:58:47;1.90;;;1.43;;
1831;SDS011;1680;48.106;11.708;2023-12-20T06:01:14;1.60;;;1.50;;
1831;SDS011;1680;48.106;11.708;2023-12-20T06:03:42;1.90;;;1.80;;
1831;SDS011;1680;48.106;11.708;2023-12-20T06:06:12;1.73;;;1.63;;
1831;SDS011;1680;48.106;11.708;2023-12-20T06:08:40;1.40;;;1.30;;
1831;SDS011;1680;48.106;11.708;2023-12-20T06:11:08;1.80;;;1.70;;
1831;SDS011;1680;48.106;11.708;2023-12-20T06:13:35;1.90;;;1.80;;
1831;SDS011;1680;48.106;11.708;2023-12-20T06:16:03;1.73;;;1.63;;
1831;SDS011;1680;48.106;11.708;2023-12-20T06:18:31;1.57;;;1.47;;
1831;SDS011;1680;48.106;11.708;2023-12-20T06:20:58;2.63;;;1.73;;
1831;SDS011;1680;48.106;11.708;2023-12-20T06:23:27;1.60;;;1.50;;
1831;SDS011;1680;48.106;11.708;2023-12-20T06:25:54;1.80;;;1.70;;
1831;SDS011;1680;48.106;11.708;2023-12-20T06:28:21;1.63;;;1.53;;
1831;SDS011;1680;48.106;11.708;2023-12-20T06:30:49;1.70;;;1.60;;
1831;SDS011;1680;48.106;11.708;2023-12-20T06:33:17;1.57;;;1.47;;
1831;SDS011;1680;48.106;11.708;2023-12-20T06:35:46;1.90;;;1.67;;
1831;SDS011;1680;48.106;11.708;2023-12-20T06:38:13;1.70;;;1.60;;
1831;SDS011;1680;48.106;11.708;2023-12-20T06:40:42;1.70;;;1.60;;
1831;SDS011;1680;48.106;11.708;2023-12-20T06:43:09;1.47;;;1.37;;
1831;SDS011;1680;48.106;11.708;2023-12-20T06:45:36;1.30;;;1.30;;
1831;SDS011;1680;48.106;11.708;2023-12-20T06:48:03;1.57;;;1.47;;
1831;SDS011;1680;48.106;11.708;2023-12-20T06:50:31;1.70;;;1.60;;
1831;SDS011;1680;48.106;11.708;2023-12-20T06:52:58;2.00;;;1.40;;
1831;SDS011;1680;48.106;11.708;2023-12-20T06:55:32;1.80;;;1.70;;
1831;SDS011;1680;48.106;11.708;2023-12-20T06:58:01;2.42;;;1.50;;
1831;SDS011;1680;48.106;11.708;2023-12-20T07:00:28;1.13;;;1.13;;
1831;SDS011;1680;48.106;11.708;2023-12-20T07:02:55;1.60;;;1.50;;
1831;SDS011;1680;48.106;11.708;2023-12-20T07:05:22;1.73;;;1.40;;
1831;SDS011;1680;48.106;11.708;2023-12-20T07:07:49;1.40;;;1.30;;
1831;SDS011;1680;48.106;11.708;2023-12-20T07:10:16;1.52;;;1.30;;
1831;SDS011;1680;48.106;11.708;2023-12-20T07:12:43;1.30;;;1.20;;
1831;SDS011;1680;48.106;11.708;2023-12-20T07:15:12;1.10;;;1.00;;
1831;SDS011;1680;48.106;11.708;2023-12-20T07:17:39;1.13;;;1.02;;
1831;SDS011;1680;48.106;11.708;2023-12-20T07:20:07;1.35;;;1.25;;
1831;SDS011;1680;48.106;11.708;2023-12-20T07:22:35;1.13;;;1.03;;
1831;SDS011;1680;48.106;11.708;2023-12-20T07:25:03;1.67;;;1.23;;
1831;SDS011;1680;48.106;11.708;2023-12-20T07:27:31;1.20;;;1.20;;
1831;SDS011;1680;48.106;11.708;2023-12-20T07:29:58;0.90;;;0.90;;
1831;SDS011;1680;48.106;11.708;2023-12-20T07:32:27;0.90;;;0.90;;
1831;SDS011;1680;48.106;11.708;2023-12-20T07:34:54;0.90;;;0.90;;
1831;SDS011;1680;48.106;11.708;2023-12-20T07:37:21;1.27;;;0.98;;
1831;SDS011;1680;48.106;11.708;2023-12-20T07:39:48;1.35;;;1.25;;
1831;SDS011;1680;48.106;11.708;2023-12-20T07:42:15;1.20;;;1.00;;
1831;SDS011;1680;48.106;11.708;2023-12-20T07:44:42;1.27;;;1.17;;
1831;SDS011;1680;48.106;11.708;2023-12-20T07:47:09;1.20;;;1.13;;
1831;SDS011;1680;48.106;11.708;2023-12-20T07:49:42;1.20;;;1.10;;
1831;SDS011;1680;48.106;11.708;2023-12-20T07:52:09;1.70;;;1.00;;
1831;SDS011;1680;48.106;11.708;2023-12-20T07:54:36;1.00;;;0.90;;
1831;SDS011;1680;48.106;11.708;2023-12-20T07:57:03;0.77;;;0.77;;
1831;SDS011;1680;48.106;11.708;2023-12-20T07:59:30;1.07;;;1.07;;
1831;SDS011;1680;48.106;11.708;2023-12-20T08:01:58;1.00;;;1.00;;
1831;SDS011;1680;48.106;11.708;2023-12-20T08:04:25;1.00;;;1.00;;
1831;SDS011;1680;48.106;11.708;2023-12-20T08:06:54;1.30;;;1.20;;
1831;SDS011;1680;48.106;11.708;2023-12-20T08:09:21;1.30;;;1.10;;
1831;SDS011;1680;48.106;11.708;2023-12-20T08:11:48;1.23;;;1.13;;
1831;SDS011;1680;48.106;11.708;2023-12-20T08:14:15;0.90;;;0.90;;
1831;SDS011;1680;48.106;11.708;2023-12-20T08:16:43;1.15;;;1.05;;
1831;SDS011;1680;48.106;11.708;2023-12-20T08:19:10;0.88;;;0.88;;
1831;SDS011;1680;48.106;11.708;2023-12-20T08:21:37;1.05;;;1.05;;
1831;SDS011;1680;48.106;11.708;2023-12-20T08:24:07;1.60;;;1.10;;
1831;SDS011;1680;48.106;11.708;2023-12-20T08:26:35;1.13;;;1.10;;
1831;SDS011;1680;48.106;11.708;2023-12-20T08:29:02;1.10;;;1.10;;
1831;SDS011;1680;48.106;11.708;2023-12-20T08:31:29;1.13;;;1.07;;
1831;SDS011;1680;48.106;11.708;2023-12-20T08:33:56;0.87;;;0.87;;
1831;SDS011;1680;48.106;11.708;2023-12-20T08:36:23;0.90;;;0.90;;
1831;SDS011;1680;48.106;11.708;2023-12-20T08:38:50;1.40;;;1.30;;
1831;SDS011;1680;48.106;11.708;2023-12-20T08:41:19;1.87;;;1.30;;
1831;SDS011;1680;48.106;11.708;2023-12-20T08:43:46;1.02;;;1.02;;
1831;SDS011;1680;48.106;11.708;2023-12-20T08:46:14;1.02;;;1.02;;
1831;SDS011;1680;48.106;11.708;2023-12-20T08:48:41;1.20;;;1.10;;
1831;SDS011;1680;48.106;11.708;2023-12-20T08:51:09;1.00;;;1.00;;
1831;SDS011;1680;48.106;11.708;2023-12-20T08:53:37;1.25;;;1.20;;
1831;SDS011;1680;48.106;11.708;2023-12-20T08:56:04;1.20;;;1.10;;
1831;SDS011;1680;48.106;11.708;2023-12-20T08:58:33;1.42;;;1.33;;
1831;SDS011;1680;48.106;11.708;2023-12-20T09:01:01;1.13;;;1.08;;
1831;SDS011;1680;48.106;11.708;2023-12-20T09:03:28;1.10;;;1.00;;
1831;SDS011;1680;48.106;11.708;2023-12-20T09:05:55;1.03;;;0.97;;
1831;SDS011;1680;48.106;11.708;2023-12-20T09:08:22;0.93;;;0.93;;
1831;SDS011;1680;48.106;11.708;2023-12-20T09:10:50;1.10;;;1.10;;
1831;SDS011;1680;48.106;11.708;2023-12-20T09:13:17;0.97;;;0.97;;
1831;SDS011;1680;48.106;11.708;2023-12-20T09:15:45;1.00;;;1.00;;
1831;SDS011;1680;48.106;11.708;2023-12-20T09:18:12;1.10;;;1.10;;
1831;SDS011;1680;48.106;11.708;2023-12-20T09:20:40;0.80;;;0.80;;
1831;SDS011;1680;48.106;11.708;2023-12-20T09:23:07;0.90;;;0.90;;
1831;SDS011;1680;48.106;11.708;2023-12-20T09:25:34;0.90;;;0.90;;
1831;SDS011;1680;48.106;11.708;2023-12-20T09:28:01;1.08;;;1.05;;
1831;SDS011;1680;48.106;11.708;2023-12-20T09:30:28;0.70;;;0.67;;
1831;SDS011;1680;48.106;11.708;2023-12-20T09:32:56;0.90;;;0.90;;
1831;SDS011;1680;48.106;11.708;2023-12-20T09:35:24;0.90;;;0.90;;
1831;SDS011;1680;48.106;11.708;2023-12-20T09:37:51;1.37;;;1.07;;
1831;SDS011;1680;48.106;11.708;2023-12-20T09:40:18;1.27;;;0.90;;
1831;SDS011;1680;48.106;11.708;2023-12-20T09:42:47;0.90;;;0.90;;
1831;SDS011;1680;48.106;11.708;2023-12-20T09:45:18;0.90;;;0.90;;
1831;SDS011;1680;48.106;11.708;2023-12-20T09:47:48;0.70;;;0.70;;
1831;SDS011;1680;48.106;11.708;2023-12-20T09:50:18;0.90;;;0.90;;
1831;SDS011;1680;48.106;11.708;2023-12-20T09:52:47;0.90;;;0.90;;
1831;SDS011;1680;48.106;11.708;2023-12-20T09:55:17;0.90;;;0.90;;
1831;SDS011;1680;48.106;11.708;2023-12-20T09:57:45;0.82;;;0.82;;
1831;SDS011;1680;48.106;11.708;2023-12-20T10:00:12;0.80;;;0.80;;
1831;SDS011;1680;48.106;11.708;2023-12-20T10:02:45;0.90;;;0.90;;
1831;SDS011;1680;48.106;11.708;2023-12-20T10:05:17;0.83;;;0.80;;
1831;SDS011;1680;48.106;11.708;2023-12-20T10:07:52;1.00;;;1.00;;
1831;SDS011;1680;48.106;11.708;2023-12-20T10:10:19;1.17;;;1.07;;
1831;SDS011;1680;48.106;11.708;2023-12-20T10:13:00;1.33;;;1.23;;
1831;SDS011;1680;48.106;11.708;2023-12-20T10:15:28;1.30;;;1.20;;
1831;SDS011;1680;48.106;11.708;2023-12-20T10:17:56;1.50;;;1.40;;
1831;SDS011;1680;48.106;11.708;2023-12-20T10:20:25;1.37;;;1.27;;
1831;SDS011;1680;48.106;11.708;2023-12-20T10:22:54;1.10;;;1.10;;
1831;SDS011;1680;48.106;11.708;2023-12-20T10:25:21;1.40;;;1.03;;
1831;SDS011;1680;48.106;11.708;2023-12-20T10:27:49;1.40;;;1.30;;
1831;SDS011;1680;48.106;11.708;2023-12-20T10:30:16;1.23;;;1.17;;
1831;SDS011;1680;48.106;11.708;2023-12-20T10:32:44;1.30;;;1.20;;
1831;SDS011;1680;48.106;11.708;2023-12-20T10:35:11;1.10;;;1.00;;
1831;SDS011;1680;48.106;11.708;2023-12-20T10:37:39;1.10;;;1.10;;
1831;SDS011;1680;48.106;11.708;2023-12-20T10:40:07;1.30;;;1.20;;
1831;SDS011;1680;48.106;11.708;2023-12-20T10:42:35;1.57;;;1.47;;
1831;SDS011;1680;48.106;11.708;2023-12-20T10:45:03;1.30;;;1.20;;
1831;SDS011;1680;48.106;11.708;2023-12-20T10:47:30;2.00;;;1.60;;
1831;SDS011;1680;48.106;11.708;2023-12-20T10:49:59;1.20;;;1.10;;
1831;SDS011;1680;48.106;11.708;2023-12-20T10:52:27;1.60;;;1.50;;
1831;SDS011;1680;48.106;11.708;2023-12-20T10:55:00;1.47;;;1.37;;
1831;SDS011;1680;48.106;11.708;2023-12-20T10:57:27;1.27;;;1.17;;
1831;SDS011;1680;48.106;11.708;2023-12-20T10:59:54;2.70;;;1.33;;
1831;SDS011;1680;48.106;11.708;2023-12-20T11:02:29;1.13;;;1.03;;
1831;SDS011;1680;48.106;11.708;2023-12-20T11:04:59;0.83;;;0.83;;
1831;SDS011;1680;48.106;11.708;2023-12-20T11:07:35;1.30;;;1.20;;
1831;SDS011;1680;48.106;11.708;2023-12-20T11:10:10;1.00;;;1.00;;
1831;SDS011;1680;48.106;11.708;2023-12-20T11:12:44;2.00;;;1.20;;
1831;SDS011;1680;48.106;11.708;2023-12-20T11:15:19;1.30;;;1.20;;
1831;SDS011;1680;48.106;11.708;2023-12-20T11:17:47;1.10;;;1.10;;
1831;SDS011;1680;48.106;11.708;2023-12-20T11:20:22;1.40;;;1.30;;
1831;SDS011;1680;48.106;11.708;2023-12-20T11:22:52;1.63;;;1.00;;
1831;SDS011;1680;48.106;11.708;2023-12-20T11:25:22;1.33;;;1.23;;
1831;SDS011;1680;48.106;11.708;2023-12-20T11:28:08;1.23;;;1.20;;
1831;SDS011;1680;48.106;11.708;2023-12-20T11:30:45;1.10;;;1.10;;
1831;SDS011;1680;48.106;11.708;2023-12-20T11:33:14;1.63;;;1.53;;
1831;SDS011;1680;48.106;11.708;2023-12-20T11:35:41;1.63;;;1.53;;
1831;SDS011;1680;48.106;11.708;2023-12-20T11:38:09;1.43;;;1.33;;
1831;SDS011;1680;48.106;11.708;2023-12-20T11:40:37;3.13;;;1.60;;
1831;SDS011;1680;48.106;11.708;2023-12-20T11:43:05;1.47;;;1.37;;
1831;SDS011;1680;48.106;11.708;2023-12-20T11:45:32;1.40;;;1.30;;
1831;SDS011;1680;48.106;11.708;2023-12-20T11:47:59;1.30;;;1.20;;
1831;SDS011;1680;48.106;11.708;2023-12-20T11:50:28;1.83;;;1.47;;
1831;SDS011;1680;48.106;11.708;2023-12-20T11:52:56;1.50;;;1.40;;
1831;SDS011;1680;48.106;11.708;2023-12-20T11:55:24;3.73;;;1.40;;
1831;SDS011;1680;48.106;11.708;2023-12-20T11:57:52;1.10;;;1.10;;
1831;SDS011;1680;48.106;11.708;2023-12-20T12:00:20;1.60;;;1.50;;
1831;SDS011;1680;48.106;11.708;2023-12-20T12:02:56;1.80;;;1.70;;
1831;SDS011;1680;48.106;11.708;2023-12-20T12:05:24;5.60;;;1.80;;
1831;SDS011;1680;48.106;11.708;2023-12-20T12:07:51;2.27;;;1.37;;
1831;SDS011;1680;48.106;11.708;2023-12-20T12:10:19;2.13;;;2.00;;
1831;SDS011;1680;48.106;11.708;2023-12-20T12:12:47;1.70;;;1.60;;
1831;SDS011;1680;48.106;11.708;2023-12-20T12:15:15;1.70;;;1.60;;
1831;SDS011;1680;48.106;11.708;2023-12-20T12:17:42;1.70;;;1.60;;
1831;SDS011;1680;48.106;11.708;2023-12-20T12:20:10;1.73;;;1.63;;
1831;SDS011;1680;48.106;11.708;2023-12-20T12:22:37;1.50;;;1.40;;
1831;SDS011;1680;48.106;11.708;2023-12-20T12:25:09;1.67;;;1.57;;
1831;SDS011;1680;48.106;11.708;2023-12-20T12:27:39;1.53;;;1.40;;
1831;SDS011;1680;48.106;11.708;2023-12-20T12:30:07;1.30;;;1.30;;
1831;SDS011;1680;48.106;11.708;2023-12-20T12:32:39;1.57;;;1.47;;
1831;SDS011;1680;48.106;11.708;2023-12-20T12:35:07;1.53;;;1.43;;
1831;SDS011;1680;48.106;11.708;2023-12-20T12:37:35;1.47;;;1.37;;
1831;SDS011;1680;48.106;11.708;2023-12-20T12:40:05;1.30;;;1.20;;
1831;SDS011;1680;48.106;11.708;2023-12-20T12:42:32;1.20;;;1.13;;
1831;SDS011;1680;48.106;11.708;2023-12-20T12:45:00;1.60;;;1.37;;
1831;SDS011;1680;48.106;11.708;2023-12-20T12:47:27;1.50;;;1.40;;
1831;SDS011;1680;48.106;11.708;2023-12-20T12:49:55;3.43;;;1.40;;
1831;SDS011;1680;48.106;11.708;2023-12-20T12:52:23;2.80;;;1.40;;
1831;SDS011;1680;48.106;11.708;2023-12-20T12:54:51;1.40;;;1.23;;
1831;SDS011;1680;48.106;11.708;2023-12-20T12:57:19;1.57;;;1.20;;
1831;SDS011;1680;48.106;11.708;2023-12-20T12:59:46;1.57;;;1.47;;
1831;SDS011;1680;48.106;11.708;2023-12-20T13:02:13;1.63;;;1.43;;
1831;SDS011;1680;48.106;11.708;2023-12-20T13:04:41;1.97;;;1.10;;
1831;SDS011;1680;48.106;11.708;2023-12-20T13:07:10;1.10;;;1.00;;
1831;SDS011;1680;48.106;11.708;2023-12-20T13:09:37;1.40;;;1.30;;
1831;SDS011;1680;48.106;11.708;2023-12-20T13:12:05;1.87;;;1.23;;
1831;SDS011;1680;48.106;11.708;2023-12-20T13:14:33;1.50;;;1.40;;
1831;SDS011;1680;48.106;11.708;2023-12-20T13:17:04;1.40;;;1.30;;
1831;SDS011;1680;48.106;11.708;2023-12-20T13:19:32;1.40;;;1.30;;
1831;SDS011;1680;48.106;11.708;2023-12-20T13:21:59;1.27;;;1.20;;
1831;SDS011;1680;48.106;11.708;2023-12-20T13:24:27;1.80;;;1.60;;
1831;SDS011;1680;48.106;11.708;2023-12-20T13:26:54;1.80;;;1.60;;
1831;SDS011;1680;48.106;11.708;2023-12-20T13:29:21;2.13;;;1.93;;
1831;SDS011;1680;48.106;11.708;2023-12-20T13:31:49;1.97;;;1.70;;
1831;SDS011;1680;48.106;11.708;2023-12-20T13:34:16;2.20;;;2.00;;
1831;SDS011;1680;48.106;11.708;2023-12-20T13:36:43;1.77;;;1.67;;
1831;SDS011;1680;48.106;11.708;2023-12-20T13:39:12;3.43;;;1.90;;
1831;SDS011;1680;48.106;11.708;2023-12-20T13:41:41;2.13;;;1.97;;
1831;SDS011;1680;48.106;11.708;2023-12-20T13:44:08;2.10;;;1.90;;
1831;SDS011;1680;48.106;11.708;2023-12-20T13:46:37;2.03;;;1.93;;
1831;SDS011;1680;48.106;11.708;2023-12-20T13:49:04;2.10;;;2.00;;
1831;SDS011;1680;48.106;11.708;2023-12-20T13:51:31;3.67;;;2.20;;
1831;SDS011;1680;48.106;11.708;2023-12-20T13:53:58;2.40;;;1.87;;
1831;SDS011;1680;48.106;11.708;2023-12-20T13:56:25;2.47;;;2.20;;
1831;SDS011;1680;48.106;11.708;2023-12-20T13:58:54;3.10;;;2.60;;
1831;SDS011;1680;48.106;11.708;2023-12-20T14:01:21;2.30;;;2.20;;
1831;SDS011;1680;48.106;11.708;2023-12-20T14:03:48;3.33;;;2.25;;
1831;SDS011;1680;48.106;11.708;2023-12-20T14:06:15;3.70;;;2.40;;
1831;SDS011;1680;48.106;11.708;2023-12-20T14:08:43;4.40;;;2.53;;
1831;SDS011;1680;48.106;11.708;2023-12-20T14:11:10;3.57;;;2.50;;
1831;SDS011;1680;48.106;11.708;2023-12-20T14:13:37;3.00;;;2.70;;
1831;SDS011;1680;48.106;11.708;2023-12-20T14:16:06;2.70;;;2.50;;
1831;SDS011;1680;48.106;11.708;2023-12-20T14:18:33;3.57;;;3.00;;
1831;SDS011;1680;48.106;11.708;2023-12-20T14:21:00;3.50;;;2.83;;
1831;SDS011;1680;48.106;11.708;2023-12-20T14:23:27;3.10;;;2.70;;
1831;SDS011;1680;48.106;11.708;2023-12-20T14:25:54;2.70;;;2.50;;
1831;SDS011;1680;48.106;11.708;2023-12-20T14:28:23;3.30;;;3.00;;
1831;SDS011;1680;48.106;11.708;2023-12-20T14:30:50;2.67;;;2.47;;
1831;SDS011;1680;48.106;11.708;2023-12-20T14:33:19;3.13;;;2.37;;
1831;SDS011;1680;48.106;11.708;2023-12-20T14:35:46;4.83;;;2.47;;
1831;SDS011;1680;48.106;11.708;2023-12-20T14:38:14;2.83;;;2.63;;
1831;SDS011;1680;48.106;11.708;2023-12-20T14:40:41;2.88;;;2.63;;
1831;SDS011;1680;48.106;11.708;2023-12-20T14:43:08;3.08;;;2.20;;
1831;SDS011;1680;48.106;11.708;2023-12-20T14:45:35;6.60;;;2.67;;
1831;SDS011;1680;48.106;11.708;2023-12-20T14:48:02;6.35;;;2.63;;
1831;SDS011;1680;48.106;11.708;2023-12-20T14:50:31;4.00;;;2.67;;
1831;SDS011;1680;48.106;11.708;2023-12-20T14:52:58;2.72;;;2.20;;
1831;SDS011;1680;48.106;11.708;2023-12-20T14:55:25;3.20;;;2.90;;
1831;SDS011;1680;48.106;11.708;2023-12-20T14:57:54;4.88;;;2.72;;
1831;SDS011;1680;48.106;11.708;2023-12-20T15:00:21;2.40;;;2.17;;
1831;SDS011;1680;48.106;11.708;2023-12-20T15:02:49;5.72;;;2.83;;
1831;SDS011;1680;48.106;11.708;2023-12-20T15:05:16;2.97;;;2.30;;